Time;durP1;ratioP1;P1;durP2;ratioP2;P2;SDS_P1;SDS_P2;PMS_P1;PMS_P2;Temp;Humidity;BMP_temperature;BMP_pressure;BME280_temperature;BME280_humidity;BME280_pressure;Samples;Min_cycle;Max_cycle;Signal;HPM_P1;HPM_P2
2023/11/19 00:00:51;;;;;;;1999.90;999.90;;;13.20;99.90;;;;;;4963539;28;20276;-72
2023/11/19 00:03:17;;;;;;;1999.90;999.90;;;13.20;99.90;;;;;;4970401;28;20084;-73
2023/11/19 00:05:44;;;;;;;1999.90;999.90;;;13.20;99.90;;;;;;4971789;28;20031;-73
2023/11/19 00:08:10;;;;;;;1999.90;999.90;;;13.20;99.90;;;;;;4972268;28;20345;-73
2023/11/19 00:10:35;;;;;;;1999.90;999.90;;;13.20;99.90;;;;;;4970316;28;20038;-72
2023/11/19 00:13:02;;;;;;;1999.90;999.90;;;13.20;99.90;;;;;;4969859;28;20084;-73
2023/11/19 00:15:28;;;;;;;1999.90;999.90;;;13.20;99.90;;;;;;4969069;28;20037;-73
2023/11/19 00:17:54;;;;;;;1999.90;999.90;;;13.20;99.90;;;;;;4970694;28;20100;-72
2023/11/19 00:20:23;;;;;;;1999.90;999.90;;;13.10;99.90;;;;;;4971700;28;20035;-72
2023/11/19 00:22:52;;;;;;;1999.90;999.90;;;13.20;99.90;;;;;;4969226;28;20089;-72
2023/11/19 00:25:19;;;;;;;1999.90;999.90;;;13.20;99.90;;;;;;4964617;28;20437;-71
2023/11/19 00:27:45;;;;;;;1999.90;999.90;;;13.10;99.90;;;;;;4970845;28;20405;-72
2023/11/19 00:30:11;;;;;;;1999.90;999.90;;;13.10;99.90;;;;;;4971944;28;20031;-72
2023/11/19 00:32:38;;;;;;;1999.90;999.90;;;13.10;99.90;;;;;;4975276;28;20248;-72
2023/11/19 00:35:04;;;;;;;1999.90;999.90;;;13.10;99.90;;;;;;4972948;28;20059;-72
2023/11/19 00:37:31;;;;;;;1999.90;999.90;;;13.10;99.90;;;;;;4972316;28;20425;-72
2023/11/19 00:39:58;;;;;;;1999.90;999.90;;;13.10;99.90;;;;;;4972785;28;20065;-72
2023/11/19 00:42:24;;;;;;;1999.90;999.90;;;13.10;99.90;;;;;;4969812;28;20026;-72
2023/11/19 00:44:51;;;;;;;1999.90;999.90;;;13.00;99.90;;;;;;4961120;28;20126;-72
2023/11/19 00:47:20;;;;;;;1999.90;999.90;;;13.10;99.90;;;;;;4986539;28;20049;-71
2023/11/19 00:49:49;;;;;;;1999.90;999.90;;;13.10;99.90;;;;;;4970926;28;20101;-72
2023/11/19 00:52:18;;;;;;;1999.90;999.90;;;13.00;99.90;;;;;;4972831;28;20030;-72
2023/11/19 00:54:45;;;;;;;1999.90;999.90;;;13.00;99.90;;;;;;4970080;28;20068;-72
2023/11/19 00:57:11;;;;;;;1999.90;999.90;;;13.00;99.90;;;;;;4972190;28;20034;-72
2023/11/19 00:59:37;;;;;;;1999.90;999.90;;;13.00;99.90;;;;;;4965107;28;20036;-73
2023/11/19 01:02:04;;;;;;;1999.90;999.90;;;13.00;99.90;;;;;;4969273;28;20322;-72
2023/11/19 01:04:34;;;;;;;1999.90;999.90;;;13.00;99.90;;;;;;4969806;28;20027;-73
2023/11/19 01:07:03;;;;;;;1999.90;999.90;;;13.00;99.90;;;;;;4971925;28;20037;-72
2023/11/19 01:09:32;;;;;;;1999.90;999.90;;;13.00;99.90;;;;;;4980178;28;20024;-72
2023/11/19 01:11:58;;;;;;;1999.90;999.90;;;13.00;99.90;;;;;;4967252;28;20031;-73
2023/11/19 01:14:25;;;;;;;1999.90;999.90;;;13.00;99.90;;;;;;4970218;28;20058;-73
2023/11/19 01:16:51;;;;;;;1999.90;999.90;;;13.00;99.90;;;;;;4965171;28;20046;-72
2023/11/19 01:19:16;;;;;;;1999.90;999.90;;;13.00;99.90;;;;;;4965981;28;20023;-73
2023/11/19 01:21:43;;;;;;;1999.90;999.90;;;13.00;99.90;;;;;;4953738;28;20326;-72
2023/11/19 01:24:09;;;;;;;1999.90;999.90;;;13.00;99.90;;;;;;4969392;28;20058;-72
2023/11/19 01:26:35;;;;;;;1999.90;999.90;;;13.00;99.90;;;;;;4966080;28;20113;-73
2023/11/19 01:29:01;;;;;;;1999.90;999.90;;;13.00;99.90;;;;;;4969978;28;20081;-72
2023/11/19 01:31:26;;;;;;;1999.90;999.90;;;13.00;99.90;;;;;;4962562;28;20027;-71
2023/11/19 01:33:54;;;;;;;1999.90;999.90;;;12.90;99.90;;;;;;4955250;28;20024;-72
2023/11/19 01:36:20;;;;;;;1999.90;999.90;;;12.90;99.90;;;;;;4965288;28;20035;-71
2023/11/19 01:38:46;;;;;;;1999.90;999.90;;;12.90;99.90;;;;;;4958580;28;20047;-72
2023/11/19 01:41:12;;;;;;;1999.90;999.90;;;12.90;99.90;;;;;;4962963;28;20034;-72
2023/11/19 01:43:42;;;;;;;1999.90;999.90;;;12.90;99.90;;;;;;4957167;28;20034;-72
2023/11/19 01:46:11;;;;;;;1999.90;999.90;;;12.90;99.90;;;;;;4953355;28;20460;-72
2023/11/19 01:48:41;;;;;;;1999.90;999.90;;;12.90;99.90;;;;;;4958716;28;20051;-73
2023/11/19 01:51:08;;;;;;;1999.90;999.90;;;12.90;99.90;;;;;;4971933;28;20023;-73
2023/11/19 01:53:36;;;;;;;1999.90;999.90;;;12.80;99.90;;;;;;4971392;28;20088;-72
2023/11/19 01:56:03;;;;;;;1999.90;999.90;;;12.80;99.90;;;;;;4968465;28;20113;-71
2023/11/19 01:58:29;;;;;;;1999.90;999.90;;;12.90;99.90;;;;;;4967103;28;20065;-73
2023/11/19 02:00:56;;;;;;;1999.90;999.90;;;12.80;99.90;;;;;;4967777;28;20042;-72
2023/11/19 02:03:22;;;;;;;1999.90;999.90;;;12.80;99.90;;;;;;4971474;28;20480;-72
2023/11/19 02:05:50;;;;;;;1999.90;999.90;;;12.80;99.90;;;;;;4969850;28;20433;-72
2023/11/19 02:08:17;;;;;;;1999.90;999.90;;;12.70;99.90;;;;;;4972340;28;20389;-72
2023/11/19 02:10:43;;;;;;;1999.90;999.90;;;12.70;99.90;;;;;;4971379;28;20363;-72
2023/11/19 02:13:10;;;;;;;1999.90;999.90;;;12.70;99.90;;;;;;4962377;28;20032;-72
2023/11/19 02:15:35;;;;;;;;;;;12.60;99.90;;;;;;4966963;28;20208;-72
2023/11/19 02:18:30;;;;;;;1999.90;999.90;;;12.60;99.90;;;;;;4973381;28;20306;-73
2023/11/19 02:20:59;;;;;;;1999.90;999.90;;;12.60;99.90;;;;;;4962709;28;20113;-73
2023/11/19 02:23:28;;;;;;;1999.90;999.90;;;12.50;99.90;;;;;;4969589;28;20430;-71
2023/11/19 02:26:03;;;;;;;1999.90;999.90;;;12.50;99.90;;;;;;4965871;28;20424;-71
2023/11/19 02:28:29;;;;;;;1999.90;999.90;;;12.40;99.90;;;;;;4961758;28;20035;-72
2023/11/19 02:30:55;;;;;;;1999.90;999.90;;;12.40;99.90;;;;;;4971340;28;20684;-73
2023/11/19 02:33:20;;;;;;;1999.90;999.90;;;12.40;99.90;;;;;;4967615;28;20118;-72
2023/11/19 02:35:46;;;;;;;1999.90;999.90;;;12.40;99.90;;;;;;4974202;28;20118;-72
2023/11/19 02:38:14;;;;;;;1999.90;999.90;;;12.40;99.90;;;;;;4974203;28;20436;-71
2023/11/19 02:40:39;;;;;;;1999.90;999.90;;;12.40;99.90;;;;;;4969442;28;20037;-72
2023/11/19 02:43:05;;;;;;;1999.90;999.90;;;12.40;99.90;;;;;;4974168;28;20034;-72
2023/11/19 02:45:31;;;;;;;1999.90;999.90;;;12.40;99.90;;;;;;4970992;28;20026;-73
2023/11/19 02:47:56;;;;;;;1999.90;999.90;;;12.40;99.90;;;;;;4958520;28;20023;-71
2023/11/19 02:50:25;;;;;;;1999.90;999.90;;;12.40;99.90;;;;;;4968269;28;20030;-72
2023/11/19 02:52:53;;;;;;;1999.90;999.90;;;12.40;99.90;;;;;;4974490;28;20097;-72
2023/11/19 02:55:19;;;;;;;1999.90;999.90;;;12.40;99.90;;;;;;4968142;28;20065;-72
2023/11/19 02:57:48;;;;;;;1999.90;999.90;;;12.40;99.90;;;;;;4964909;28;20416;-72
2023/11/19 03:00:32;;;;;;;1999.90;999.90;;;12.30;99.90;;;;;;4970795;28;20456;-71
2023/11/19 03:03:09;;;;;;;1999.90;999.90;;;12.30;99.90;;;;;;4960916;28;20050;-73
2023/11/19 03:05:36;;;;;;;1999.90;999.90;;;12.30;99.90;;;;;;4974361;28;20037;-73
2023/11/19 03:08:02;;;;;;;1999.90;999.90;;;12.30;99.90;;;;;;4973721;28;20030;-71
2023/11/19 03:10:29;;;;;;;;;;;12.30;99.90;;;;;;4971947;28;20413;-72
2023/11/19 03:12:56;;;;;;;1999.90;999.90;;;12.20;99.90;;;;;;4973632;28;20269;-72
2023/11/19 03:15:22;;;;;;;1999.90;999.90;;;12.20;99.90;;;;;;4973661;28;20112;-72
2023/11/19 03:17:48;;;;;;;1999.90;999.90;;;12.20;99.90;;;;;;4972311;28;20027;-72
2023/11/19 03:20:16;;;;;;;1999.90;999.90;;;12.20;99.90;;;;;;4968380;28;20402;-72
2023/11/19 03:22:43;;;;;;;1999.90;999.90;;;12.20;99.90;;;;;;4968106;28;20045;-72
2023/11/19 03:25:10;;;;;;;1999.90;999.90;;;12.10;99.90;;;;;;4974265;28;20030;-73
2023/11/19 03:27:39;;;;;;;1999.90;999.90;;;12.10;99.90;;;;;;4968126;28;20476;-71
2023/11/19 03:30:12;;;;;;;1999.90;999.90;;;12.10;99.90;;;;;;4972025;28;20196;-72
2023/11/19 03:32:38;;;;;;;1999.90;999.90;;;12.00;99.90;;;;;;4966146;28;20030;-73
2023/11/19 03:35:07;;;;;;;1999.90;999.90;;;12.00;99.90;;;;;;4964976;28;20112;-71
2023/11/19 03:37:33;;;;;;;1999.90;999.90;;;12.00;99.90;;;;;;4963295;28;20315;-72
2023/11/19 03:39:59;;;;;;;1999.90;999.90;;;12.00;99.90;;;;;;4969887;28;20075;-71
2023/11/19 03:42:31;;;;;;;1999.90;999.90;;;11.90;99.90;;;;;;4963822;28;20038;-73
2023/11/19 03:44:57;;;;;;;1999.90;999.90;;;11.90;99.90;;;;;;4959787;28;20035;-71
2023/11/19 03:47:23;;;;;;;1999.90;999.90;;;11.90;99.90;;;;;;4964790;28;20034;-73
2023/11/19 03:49:49;;;;;;;1999.90;999.90;;;11.90;99.90;;;;;;4973545;28;20026;-71
2023/11/19 03:52:16;;;;;;;1999.90;999.90;;;11.90;99.90;;;;;;4970668;28;20350;-72
2023/11/19 03:54:42;;;;;;;1999.90;999.90;;;11.90;99.90;;;;;;4970612;28;20333;-72
2023/11/19 03:57:07;;;;;;;1999.90;999.90;;;11.90;99.90;;;;;;4973421;28;20109;-72
2023/11/19 03:59:33;;;;;;;1999.90;999.90;;;11.90;99.90;;;;;;4972297;28;20057;-72
2023/11/19 04:02:00;;;;;;;1999.90;999.90;;;11.90;99.90;;;;;;4972979;28;20031;-73
2023/11/19 04:04:27;;;;;;;1999.90;999.90;;;11.90;99.90;;;;;;4969677;28;20058;-72
2023/11/19 04:06:53;;;;;;;;;;;11.90;99.90;;;;;;4963867;28;20019;-72
2023/11/19 04:09:19;;;;;;;1999.90;999.90;;;12.00;99.90;;;;;;4971841;28;19912;-72
2023/11/19 04:11:46;;;;;;;1999.90;999.90;;;12.00;99.90;;;;;;4968831;28;20045;-72
2023/11/19 04:14:13;;;;;;;1999.90;999.90;;;12.00;99.90;;;;;;4960886;28;20494;-72
2023/11/19 04:16:39;;;;;;;1999.90;999.90;;;11.90;99.90;;;;;;4963080;28;20039;-71
2023/11/19 04:19:06;;;;;;;1999.90;999.90;;;11.90;99.90;;;;;;4962397;28;20042;-73
2023/11/19 04:21:32;;;;;;;1999.90;999.90;;;11.90;99.90;;;;;;4965959;28;20050;-72
2023/11/19 04:23:58;;;;;;;1999.90;999.90;;;11.80;99.90;;;;;;4957308;28;20031;-72
2023/11/19 04:26:24;;;;;;;1999.90;999.90;;;11.80;99.90;;;;;;4956392;28;20073;-71
2023/11/19 04:28:50;;;;;;;1999.90;999.90;;;11.80;99.90;;;;;;4956007;28;20080;-72
2023/11/19 04:31:16;;;;;;;1999.90;999.90;;;11.80;99.90;;;;;;4967874;28;20383;-71
2023/11/19 04:33:43;;;;;;;1999.90;999.90;;;11.70;99.90;;;;;;4958556;28;20058;-71
2023/11/19 04:36:10;;;;;;;1999.90;999.90;;;11.70;99.90;;;;;;4959836;28;20322;-72
2023/11/19 04:38:37;;;;;;;1999.90;999.90;;;11.80;99.90;;;;;;4963610;28;20078;-72
2023/11/19 04:41:02;;;;;;;;;;;11.80;99.90;;;;;;4961412;28;20046;-74
2023/11/19 04:43:28;;;;;;;1999.90;999.90;;;11.80;99.90;;;;;;4968575;28;19941;-72
2023/11/19 04:45:54;;;;;;;1999.90;999.90;;;11.80;99.90;;;;;;4968989;28;20311;-73
2023/11/19 04:48:19;;;;;;;1999.90;999.90;;;11.80;99.90;;;;;;4961253;28;20497;-72
2023/11/19 04:50:45;;;;;;;1999.90;999.90;;;11.80;99.90;;;;;;4969198;28;20084;-71
2023/11/19 04:53:11;;;;;;;1999.90;999.90;;;11.80;99.90;;;;;;4967781;28;20026;-72
2023/11/19 04:55:37;;;;;;;1999.90;999.90;;;11.90;99.90;;;;;;4969911;28;20069;-72
2023/11/19 04:58:03;;;;;;;1999.90;999.90;;;11.80;99.90;;;;;;4961920;28;20035;-71
2023/11/19 05:00:29;;;;;;;1999.90;999.90;;;11.90;99.90;;;;;;4957412;28;20038;-72
2023/11/19 05:02:55;;;;;;;1999.90;999.90;;;11.90;99.90;;;;;;4972998;28;20035;-71
2023/11/19 05:05:21;;;;;;;1999.90;999.90;;;11.90;99.90;;;;;;4970374;28;20041;-71
2023/11/19 05:07:47;;;;;;;1999.90;999.90;;;11.90;99.90;;;;;;4965427;28;20059;-73
2023/11/19 05:10:12;;;;;;;1999.90;999.90;;;11.90;99.90;;;;;;4964079;28;20031;-72
2023/11/19 05:12:39;;;;;;;1999.90;999.90;;;11.80;99.90;;;;;;4963938;28;20027;-71
2023/11/19 05:15:05;;;;;;;1999.90;999.90;;;11.80;99.90;;;;;;4972352;28;20106;-73
2023/11/19 05:17:31;;;;;;;1999.90;999.90;;;11.80;99.90;;;;;;4969736;28;20088;-72
2023/11/19 05:19:57;;;;;;;1999.90;999.90;;;11.70;99.90;;;;;;4970782;28;20418;-72
2023/11/19 05:22:23;;;;;;;1999.90;999.90;;;11.70;99.90;;;;;;4972039;28;20045;-72
2023/11/19 05:24:49;;;;;;;1999.90;999.90;;;11.70;99.90;;;;;;4972099;28;20101;-72
2023/11/19 05:27:15;;;;;;;1999.90;999.90;;;11.60;99.90;;;;;;4966876;28;20038;-72
2023/11/19 05:29:41;;;;;;;1999.90;999.90;;;11.60;99.90;;;;;;4979239;28;20024;-72
2023/11/19 05:32:07;;;;;;;1999.90;999.90;;;11.50;99.90;;;;;;4967027;28;20031;-72
2023/11/19 05:34:33;;;;;;;1999.90;999.90;;;11.50;99.90;;;;;;4973187;28;20037;-72
2023/11/19 05:36:59;;;;;;;1999.90;999.90;;;11.50;99.90;;;;;;4982334;28;20022;-71
2023/11/19 05:39:25;;;;;;;1999.90;999.90;;;11.50;99.90;;;;;;4971477;28;20111;-73
2023/11/19 05:41:51;;;;;;;1999.90;999.90;;;11.50;99.90;;;;;;4967274;28;20026;-72
2023/11/19 05:44:18;;;;;;;1999.90;999.90;;;11.50;99.90;;;;;;4976439;28;20070;-72
2023/11/19 05:46:44;;;;;;;1999.90;999.90;;;11.60;99.90;;;;;;4960333;28;20258;-72
2023/11/19 05:49:11;;;;;;;1999.90;999.90;;;11.60;99.90;;;;;;4980603;28;20128;-72
2023/11/19 05:51:41;;;;;;;1999.90;999.90;;;11.50;99.90;;;;;;4983156;28;20022;-71
2023/11/19 05:54:10;;;;;;;1999.90;999.90;;;11.50;99.90;;;;;;4977516;28;20034;-71
2023/11/19 05:56:36;;;;;;;1999.90;999.90;;;11.50;99.90;;;;;;4972772;28;20059;-72
2023/11/19 05:59:14;;;;;;;1999.90;999.90;;;11.50;99.90;;;;;;4994487;28;20047;-72
2023/11/19 06:01:41;;;;;;;1999.90;999.90;;;11.60;99.90;;;;;;4974025;28;20496;-73
2023/11/19 06:04:07;;;;;;;1999.90;999.90;;;11.60;99.90;;;;;;4984534;28;20122;-72
2023/11/19 06:06:33;;;;;;;1999.90;999.90;;;11.60;99.90;;;;;;4975509;28;20410;-72
2023/11/19 06:09:00;;;;;;;1999.90;999.90;;;11.50;99.90;;;;;;4963685;28;20118;-72
2023/11/19 06:11:26;;;;;;;1999.90;999.90;;;11.50;99.90;;;;;;4963256;28;20448;-72
2023/11/19 06:13:52;;;;;;;;;;;11.40;99.90;;;;;;4981609;28;20378;-71
2023/11/19 06:16:18;;;;;;;1999.90;999.90;;;11.40;99.90;;;;;;4959182;28;20009;-72
2023/11/19 06:18:44;;;;;;;1999.90;999.90;;;11.40;99.90;;;;;;4979860;28;20035;-72
2023/11/19 06:21:11;;;;;;;1999.90;999.90;;;11.40;99.90;;;;;;4971391;28;20041;-72
2023/11/19 06:23:37;;;;;;;;;;;11.40;99.90;;;;;;4967922;28;20035;-72
2023/11/19 06:26:03;;;;;;;1999.90;999.90;;;11.40;99.90;;;;;;4976260;28;19922;-72
2023/11/19 06:28:29;;;;;;;1999.90;999.90;;;11.40;99.90;;;;;;4994694;28;20023;-71
2023/11/19 06:30:55;;;;;;;1999.90;999.90;;;11.40;99.90;;;;;;4978771;28;20252;-72
2023/11/19 06:33:22;;;;;;;1999.90;999.90;;;11.40;99.90;;;;;;4968968;28;20090;-71
2023/11/19 06:35:49;;;;;;;1999.90;999.90;;;11.40;99.90;;;;;;4967481;28;20088;-72
2023/11/19 06:38:15;;;;;;;1999.90;999.90;;;11.30;99.90;;;;;;4972690;28;20061;-74
2023/11/19 06:40:41;;;;;;;1999.90;999.90;;;11.30;99.90;;;;;;4975114;28;20429;-72
2023/11/19 06:43:08;;;;;;;1999.90;999.90;;;11.40;99.90;;;;;;4960375;28;20036;-72
2023/11/19 06:45:36;;;;;;;1999.90;999.90;;;11.30;99.90;;;;;;4963192;28;20043;-73
2023/11/19 06:48:06;;;;;;;1999.90;999.90;;;11.40;99.90;;;;;;4965220;28;20027;-72
2023/11/19 06:50:32;;;;;;;1999.90;999.90;;;11.30;99.90;;;;;;4970730;28;20049;-72
2023/11/19 06:52:58;;;;;;;1999.90;999.90;;;11.40;99.90;;;;;;4972724;28;20034;-72
2023/11/19 06:55:24;;;;;;;1999.90;999.90;;;11.40;99.90;;;;;;4978689;28;20022;-72
2023/11/19 06:57:50;;;;;;;1999.90;999.90;;;11.40;99.90;;;;;;4974928;28;20302;-72
2023/11/19 07:00:16;;;;;;;1999.90;999.90;;;11.40;99.90;;;;;;4961574;28;20046;-72
2023/11/19 07:02:44;;;;;;;1999.90;999.90;;;11.40;99.90;;;;;;4979240;28;20039;-72
2023/11/19 07:05:12;;;;;;;1999.90;999.90;;;11.40;99.90;;;;;;4970161;28;20392;-72
2023/11/19 07:07:37;;;;;;;1999.90;999.90;;;11.40;99.90;;;;;;4963859;28;20028;-73
2023/11/19 07:10:05;;;;;;;1999.90;999.90;;;11.50;99.90;;;;;;4958417;28;20597;-72
2023/11/19 07:12:31;;;;;;;1999.90;999.90;;;11.50;99.90;;;;;;4978715;28;20260;-72
2023/11/19 07:14:57;;;;;;;1999.90;999.90;;;11.60;99.90;;;;;;4985839;28;20034;-72
2023/11/19 07:17:24;;;;;;;1999.90;999.90;;;11.60;99.90;;;;;;4976639;28;20257;-72
2023/11/19 07:19:50;;;;;;;1999.90;999.90;;;11.60;99.90;;;;;;4959509;28;20027;-71
2023/11/19 07:22:17;;;;;;;1999.90;999.90;;;11.60;99.90;;;;;;4961718;28;20579;-72
2023/11/19 07:24:43;;;;;;;;;;;11.60;99.90;;;;;;4967291;28;20063;-72
2023/11/19 07:27:08;;;;;;;1999.90;999.90;;;11.70;99.90;;;;;;5006736;28;19998;-71
2023/11/19 07:29:35;;;;;;;1999.90;999.90;;;11.70;99.90;;;;;;4964534;28;20314;-72
2023/11/19 07:32:04;;;;;;;1999.90;999.90;;;11.80;99.90;;;;;;4965541;28;20034;-72
2023/11/19 07:34:31;;;;;;;1999.90;999.90;;;11.80;99.90;;;;;;4970551;28;20031;-71
2023/11/19 07:37:02;;;;;;;1999.90;999.90;;;11.80;99.90;;;;;;4971830;28;20129;-72
2023/11/19 07:39:28;;;;;;;1999.90;999.90;;;11.80;99.90;;;;;;4970896;28;20043;-71
2023/11/19 07:41:55;;;;;;;1999.90;999.90;;;11.80;99.90;;;;;;4971290;28;20568;-72
2023/11/19 07:44:21;;;;;;;1999.90;999.90;;;11.80;99.90;;;;;;4972095;28;20425;-72
2023/11/19 07:46:47;;;;;;;1999.90;999.90;;;11.80;99.90;;;;;;4959777;28;20387;-72
2023/11/19 07:49:14;;;;;;;1999.90;999.90;;;11.90;99.90;;;;;;4977828;28;20026;-72
2023/11/19 07:51:40;;;;;;;1999.90;999.90;;;11.80;99.90;;;;;;4965351;28;20027;-71
2023/11/19 07:54:06;;;;;;;1999.90;999.90;;;11.90;99.90;;;;;;4972307;28;20038;-72
2023/11/19 07:56:35;;;;;;;1999.90;999.90;;;11.90;99.90;;;;;;4976079;28;20708;-71
2023/11/19 07:59:02;;;;;;;1999.90;999.90;;;11.90;99.90;;;;;;4967418;28;20031;-71
2023/11/19 08:01:28;;;;;;;;;;;11.90;99.90;;;;;;4973643;28;20057;-71
2023/11/19 08:03:53;;;;;;;1999.90;999.90;;;11.90;99.90;;;;;;4984967;28;19957;-71
2023/11/19 08:06:20;;;;;;;1999.90;999.90;;;11.90;99.90;;;;;;4976833;28;20065;-72
2023/11/19 08:08:47;;;;;;;1999.90;999.90;;;11.90;99.90;;;;;;4977690;28;20062;-71
2023/11/19 08:11:13;;;;;;;1999.90;999.90;;;11.90;99.90;;;;;;4966588;28;20073;-72
2023/11/19 08:13:39;;;;;;;1999.90;999.90;;;11.90;99.90;;;;;;4968203;28;20022;-72
2023/11/19 08:16:06;;;;;;;1999.90;999.90;;;11.90;99.90;;;;;;4969300;28;20446;-72
2023/11/19 08:18:32;;;;;;;1999.90;999.90;;;11.90;99.90;;;;;;4964505;28;20110;-71
2023/11/19 08:20:59;;;;;;;1999.90;999.90;;;12.00;99.90;;;;;;4961590;28;20114;-72
2023/11/19 08:23:25;;;;;;;1999.90;999.90;;;12.00;99.90;;;;;;4972366;28;20401;-72
2023/11/19 08:25:52;;;;;;;1999.90;999.90;;;12.00;99.90;;;;;;4983608;28;20046;-71
2023/11/19 08:28:18;;;;;;;1999.90;999.90;;;12.00;99.90;;;;;;4968519;28;20114;-71
2023/11/19 08:30:44;;;;;;;1999.90;999.90;;;12.00;99.90;;;;;;4972644;28;20381;-71
2023/11/19 08:33:10;;;;;;;1999.90;999.90;;;12.10;99.90;;;;;;4970897;28;20038;-71
2023/11/19 08:35:36;;;;;;;1999.90;999.90;;;12.20;99.90;;;;;;4972017;28;20037;-72
2023/11/19 08:38:02;;;;;;;1999.90;999.90;;;12.30;99.90;;;;;;4969499;28;20694;-73
2023/11/19 08:40:29;;;;;;;1999.90;999.90;;;12.30;99.90;;;;;;4971523;28;20496;-71
2023/11/19 08:42:56;;;;;;;1999.90;999.90;;;12.30;99.90;;;;;;4968877;28;20023;-73
2023/11/19 08:45:22;;;;;;;1999.90;999.90;;;12.30;99.90;;;;;;4972120;28;20046;-72
2023/11/19 08:47:48;;;;;;;1999.90;999.90;;;12.20;99.90;;;;;;4970686;28;20031;-72
2023/11/19 08:50:14;;;;;;;1999.90;999.90;;;12.30;99.90;;;;;;4971849;28;20310;-71
2023/11/19 08:52:40;;;;;;;1999.90;999.90;;;12.30;99.90;;;;;;4972767;28;20022;-71
2023/11/19 08:55:06;;;;;;;1999.90;999.90;;;12.40;99.90;;;;;;4972382;28;20023;-71
2023/11/19 08:57:32;;;;;;;1999.90;999.90;;;12.50;99.90;;;;;;4970644;28;20027;-71
2023/11/19 08:59:59;;;;;;;1999.90;999.90;;;12.50;99.90;;;;;;4960918;28;20077;-72
2023/11/19 09:02:25;;;;;;;1999.90;999.90;;;12.50;99.90;;;;;;4989054;28;20478;-72
2023/11/19 09:04:51;;;;;;;1999.90;999.90;;;12.40;99.90;;;;;;4964455;28;20125;-72
2023/11/19 09:07:17;;;;;;;1999.90;999.90;;;12.40;99.90;;;;;;4958697;28;20138;-72
2023/11/19 09:09:43;;;;;;;1999.90;999.90;;;12.40;99.90;;;;;;5001415;28;20105;-71
2023/11/19 09:12:09;;;;;;;1999.90;999.90;;;12.40;99.90;;;;;;4967481;28;20360;-71
2023/11/19 09:14:35;;;;;;;1999.90;999.90;;;12.40;99.90;;;;;;4968627;28;20029;-71
2023/11/19 09:17:01;;;;;;;1999.90;999.90;;;12.50;99.90;;;;;;4975174;28;20026;-72
2023/11/19 09:19:26;;;;;;;1999.90;999.90;;;12.50;99.90;;;;;;4975993;28;20695;-72
2023/11/19 09:21:53;;;;;;;1999.90;999.90;;;12.60;99.90;;;;;;4972488;28;20061;-72
2023/11/19 09:24:19;;;;;;;1999.90;999.90;;;12.60;99.90;;;;;;4969303;28;20026;-72
2023/11/19 09:26:45;;;;;;;1999.90;999.90;;;12.70;99.90;;;;;;4970592;28;20037;-72
2023/11/19 09:29:11;;;;;;;1999.90;999.90;;;12.70;99.90;;;;;;4985860;28;20340;-72
2023/11/19 09:31:40;;;;;;;1999.90;999.90;;;12.70;99.90;;;;;;4976494;28;20023;-71
2023/11/19 09:34:06;;;;;;;1999.90;999.90;;;12.70;99.90;;;;;;4976044;28;20429;-71
2023/11/19 09:36:32;;;;;;;1999.90;999.90;;;12.70;99.90;;;;;;4966826;28;20046;-71
2023/11/19 09:39:00;;;;;;;1999.90;999.90;;;12.70;99.90;;;;;;4964643;28;20055;-72
2023/11/19 09:41:27;;;;;;;1999.90;999.90;;;12.70;99.90;;;;;;4970890;28;20201;-71
2023/11/19 09:43:53;;;;;;;1999.90;999.90;;;12.80;99.90;;;;;;4972225;28;20015;-71
2023/11/19 09:46:21;;;;;;;1999.90;999.90;;;12.80;99.90;;;;;;4981447;28;20099;-72
2023/11/19 09:48:48;;;;;;;1999.90;999.90;;;12.80;99.90;;;;;;4972969;28;20288;-71
2023/11/19 09:51:14;;;;;;;1999.90;999.90;;;12.80;99.90;;;;;;5001384;28;20016;-71
2023/11/19 09:53:41;;;;;;;1999.90;999.90;;;12.80;99.90;;;;;;4992046;28;20034;-71
2023/11/19 09:56:07;;;;;;;1999.90;999.90;;;12.80;99.90;;;;;;4969868;28;20453;-71
2023/11/19 09:58:34;;;;;;;1999.90;999.90;;;12.80;99.90;;;;;;4967183;28;20034;-71
2023/11/19 10:01:02;;;;;;;1999.90;999.90;;;12.80;99.90;;;;;;4956731;28;20045;-72
2023/11/19 10:03:32;;;;;;;1999.90;999.90;;;12.70;99.90;;;;;;4965376;28;20503;-71
2023/11/19 10:05:59;;;;;;;1999.90;999.90;;;12.80;99.90;;;;;;4988170;28;20027;-71
2023/11/19 10:08:25;;;;;;;1999.90;999.90;;;12.80;99.90;;;;;;4979132;28;20019;-73
2023/11/19 10:10:51;;;;;;;1999.90;999.90;;;12.80;99.90;;;;;;4978717;28;20096;-72
2023/11/19 10:13:18;;;;;;;1999.90;999.90;;;12.80;99.90;;;;;;4995240;28;20027;-72
2023/11/19 10:15:44;;;;;;;1999.90;999.90;;;12.80;99.90;;;;;;4968926;28;20035;-71
2023/11/19 10:18:10;;;;;;;1999.90;999.90;;;13.00;99.90;;;;;;4956468;28;20710;-71
2023/11/19 10:20:37;;;;;;;1999.90;999.90;;;13.00;99.90;;;;;;4960542;28;20043;-71
2023/11/19 10:23:03;;;;;;;;;;;13.10;99.90;;;;;;5011114;28;20040;-71
2023/11/19 10:25:29;;;;;;;1999.90;999.90;;;13.20;99.90;;;;;;4971666;28;19959;-71
2023/11/19 10:27:59;;;;;;;1999.90;999.90;;;13.20;99.90;;;;;;4972251;28;20031;-71
2023/11/19 10:30:27;;;;;;;1999.90;999.90;;;13.20;99.90;;;;;;4999736;28;20433;-71
2023/11/19 10:33:08;;;;;;;1999.90;999.90;;;13.20;99.90;;;;;;4973662;28;20027;-71
2023/11/19 10:35:54;;;;;;;1999.90;999.90;;;13.20;99.90;;;;;;4985523;28;20031;-71
2023/11/19 10:38:22;;;;;;;1999.90;999.90;;;13.10;99.90;;;;;;4972361;28;20072;-72
2023/11/19 10:40:48;;;;;;;1999.90;999.90;;;13.10;99.90;;;;;;4986332;28;20042;-71
2023/11/19 10:43:14;;;;;;;1999.90;999.90;;;13.00;99.90;;;;;;4975676;28;20049;-71
2023/11/19 10:45:40;;;;;;;1999.90;999.90;;;13.00;99.90;;;;;;4972434;28;20031;-72
2023/11/19 10:48:07;;;;;;;1999.90;999.90;;;13.10;99.90;;;;;;4968893;28;20451;-71
2023/11/19 10:50:37;;;;;;;1999.90;999.90;;;13.20;99.90;;;;;;4984685;28;20028;-72
2023/11/19 10:53:05;;;;;;;1999.90;999.90;;;13.30;99.90;;;;;;4993191;28;20039;-71
2023/11/19 10:55:32;;;;;;;1999.90;999.90;;;13.40;99.90;;;;;;4975257;28;20030;-70
2023/11/19 10:58:03;;;;;;;1999.90;999.90;;;13.50;99.90;;;;;;4973664;28;20019;-72
2023/11/19 11:01:02;;;;;;;1999.90;999.90;;;13.60;99.90;;;;;;4972822;28;20022;-72
2023/11/19 11:03:39;;;;;;;1999.90;999.90;;;13.60;99.90;;;;;;5040553;28;20033;-72
2023/11/19 11:06:05;;;;;;;1999.90;999.90;;;13.60;99.90;;;;;;5035508;28;20025;-71
2023/11/19 11:08:31;;;;;;;1999.90;999.90;;;13.70;99.90;;;;;;5053084;28;20131;-71
2023/11/19 11:10:58;;;;;;;1999.90;999.90;;;13.70;99.90;;;;;;5053404;28;20025;-72
2023/11/19 11:13:29;;;;;;;1999.90;999.90;;;13.70;99.90;;;;;;5054773;28;20033;-71
2023/11/19 11:15:57;;;;;;;1999.90;999.90;;;13.70;99.90;;;;;;5054933;28;20036;-72
2023/11/19 11:18:25;;;;;;;1999.90;999.90;;;13.70;99.90;;;;;;5053644;28;20323;-72
2023/11/19 11:21:03;;;;;;;1999.90;999.90;;;13.70;99.90;;;;;;5052367;28;20030;-72
2023/11/19 11:23:35;;;;;;;1999.90;999.90;;;13.80;99.90;;;;;;5039869;28;20025;-71
2023/11/19 11:26:28;;;;;;;1999.90;999.90;;;13.80;99.90;;;;;;5045166;28;20079;-72
2023/11/19 11:29:32;;;;;;;1999.90;999.90;;;13.90;99.90;;;;;;5032312;28;20106;-71
2023/11/19 11:32:18;;;;;;;1999.90;999.90;;;14.10;99.90;;;;;;4993851;28;20034;-72
2023/11/19 11:35:00;;;;;;;1999.90;999.90;;;14.20;99.90;;;;;;4990058;28;20065;-72
2023/11/19 11:37:32;;;;;;;1999.90;999.90;;;14.20;99.90;;;;;;4998437;28;20452;-72
2023/11/19 11:40:05;;;;;;;1999.90;999.90;;;14.20;99.90;;;;;;4944711;28;20053;-71
2023/11/19 11:42:32;;;;;;;1999.90;999.90;;;14.00;99.90;;;;;;4914756;28;20040;-72
2023/11/19 11:44:59;;;;;;;1999.90;999.90;;;13.90;99.90;;;;;;4913339;28;20028;-72
2023/11/19 11:47:26;;;;;;;1999.90;999.90;;;13.80;99.90;;;;;;4911655;28;20032;-73
2023/11/19 11:49:53;;;;;;;1999.90;999.90;;;13.90;99.90;;;;;;4913337;28;20028;-72
2023/11/19 11:52:19;;;;;;;1999.90;999.90;;;13.90;99.90;;;;;;4923288;28;20123;-72
2023/11/19 11:54:46;;;;;;;1999.90;999.90;;;13.80;99.90;;;;;;4893097;29;20051;-73
2023/11/19 11:57:13;;;;;;;1999.90;999.90;;;13.80;99.90;;;;;;4920490;28;20032;-75
2023/11/19 11:59:42;;;;;;;1999.90;999.90;;;13.80;99.90;;;;;;4912151;28;20083;-72
2023/11/19 12:02:09;;;;;;;1999.90;999.90;;;13.80;99.90;;;;;;4912523;28;20428;-72
2023/11/19 12:04:36;;;;;;;1999.90;999.90;;;13.80;99.90;;;;;;4914125;28;20044;-72